Belize City, Belize

12:22 PM CST on December 06, 2016 (GMT -0600)
Philip S W Goldson International | | Change Station

Elev 16 ft 17.54 °N, 88.31 °W | Updated 22 minutes ago

Partly Cloudy
Partly Cloudy
90 °F
Feels Like 108 °F
N
6
Wind Variable Wind from NE

Today
High -- | Low -- °F
--% Chance of Precip.
Yesterday
High -- | Low -- °F
Precip. -- in
Pressure 29.90 in
Visibility 6.2 miles
Clouds Few 2200 ft
Heat Index 108 °F
Dew Point 81 °F
Humidity 75%
Rainfall 0.00 in
Snow Depth Not available.
6:10 AM 5:18 PM
Waxing Crescent, 44% visible
METAR MZBZ 061800Z 05005KT 9999 FEW022 32/27 A2990 Q1012 NOSIG
Pressure 29.90 in
Visibility 6.2 miles
Clouds Few 2200 ft
Heat Index 108 °F
Dew Point 81 °F
Humidity 75%
Rainfall 0.00 in
Snow Depth Not available.
6:10 AM 5:18 PM
Waxing Crescent, 44% visible
METAR MZBZ 061800Z 05005KT 9999 FEW022 32/27 A2990 Q1012 NOSIG

10-Day Weather Forecast

No radar image for this location.
×

Almanac

Astronomy

Dec. 06, 2016 Rise Set
Actual Time
Civil Twilight
Nautical Twilight
Astronomical Twilight
Moon
Length of Visible Light
Length of Day
Tomorrow will be .
, % of the Moon is Illuminated

Today's Extremes

Country Highs Country Lows

Community

WunderPhotos

Upload Photos

1,955,999 photos uploaded!

WunderBlog® & News

Nearby

Air Quality

  Air Quality AQ Index Pollutant
Not available.

Snow Depth

Station Depth Elevation

Earthquake Activity

City Distance Mag. Time & Date
Minimum magnitude displayed is 2.5.

Coastal Water Temperatures

Place Temperature

Stations

Nearby Weather Stations

Station Location Temp. Windchill Dew Point Humidity Wind Precip. Elev Updated Type